createdAt,value
2018-01-01T14:18:48.334Z,994.77
2018-01-01T14:19:48.215Z,994.76
2018-01-01T14:21:41.115Z,994.76
2018-01-01T14:22:41.166Z,994.67
2018-01-01T14:24:34.249Z,994.68
2018-01-01T14:25:34.029Z,994.68
2018-01-01T14:27:27.199Z,994.64
2018-01-01T14:28:26.992Z,994.64
2018-01-01T14:29:27.080Z,994.59
2018-01-01T14:30:26.922Z,994.57
2018-01-01T14:31:26.994Z,994.61
2018-01-01T14:32:26.861Z,994.56
2018-01-01T14:33:27.006Z,994.60
2018-01-01T14:34:26.804Z,994.55
2018-01-01T14:35:26.922Z,994.57
2018-01-01T14:36:26.738Z,994.58
2018-01-01T14:37:26.834Z,994.51
2018-01-01T14:38:26.682Z,994.52
2018-01-01T14:39:26.845Z,994.54
2018-01-01T14:40:26.618Z,994.48
2018-01-01T14:41:26.654Z,994.45
2018-01-01T14:42:26.558Z,994.44
2018-01-01T14:43:26.531Z,994.39
2018-01-01T14:44:26.576Z,994.40
2018-01-01T14:45:26.474Z,994.41
2018-01-01T14:46:26.486Z,994.36
2018-01-01T14:47:26.431Z,994.34
2018-01-01T14:48:26.392Z,994.36
2018-01-01T14:49:26.362Z,994.30
2018-01-01T14:50:26.418Z,994.31
2018-01-01T14:51:26.407Z,994.32
2018-01-01T14:52:26.427Z,994.28
2018-01-01T14:53:26.247Z,994.25
2018-01-01T14:54:26.334Z,994.19
2018-01-01T14:55:26.193Z,994.19
2018-01-01T14:56:26.348Z,994.18
2018-01-01T14:57:26.134Z,994.15
2018-01-01T14:58:26.262Z,994.12
2018-01-01T14:59:26.078Z,994.11
2018-01-01T15:00:26.172Z,994.09
2018-01-01T15:01:26.026Z,994.06
2018-01-01T15:02:26.186Z,994.09
2018-01-01T15:03:25.972Z,994.06
2018-01-01T15:04:26.098Z,994.02
2018-01-01T15:05:25.917Z,994.04
2018-01-01T15:06:26.010Z,994.00
2018-01-01T15:07:25.864Z,994.02
2018-01-01T15:08:26.026Z,993.95
2018-01-01T15:09:25.806Z,993.97
2018-01-01T15:10:25.934Z,993.97
2018-01-01T15:11:25.752Z,993.95
2018-01-01T15:12:25.842Z,993.94
2018-01-01T15:13:25.697Z,993.87
2018-01-01T15:14:25.858Z,993.85
2018-01-01T15:15:25.644Z,993.78
2018-01-01T15:16:25.766Z,993.77
2018-01-01T15:17:25.587Z,993.75
2018-01-01T15:18:25.579Z,993.74
2018-01-01T15:19:25.532Z,993.73
2018-01-01T15:20:25.595Z,993.69
2018-01-01T15:21:25.479Z,993.72
2018-01-01T15:22:25.505Z,993.69
2018-01-01T15:23:25.425Z,993.68
2018-01-01T15:24:25.518Z,993.67
2018-01-01T15:25:25.369Z,993.65
2018-01-01T15:26:25.535Z,993.64
2018-01-01T15:27:25.320Z,993.59
2018-01-01T15:28:25.336Z,993.62
2018-01-01T15:29:25.259Z,993.59
2018-01-01T15:30:25.355Z,993.61
2018-01-01T15:31:25.210Z,993.60
2018-01-01T15:32:25.267Z,993.57
2018-01-01T15:33:25.155Z,993.52
2018-01-01T15:34:25.178Z,993.54
2018-01-01T15:35:25.096Z,993.51
2018-01-01T15:36:25.190Z,993.50
2018-01-01T15:37:25.045Z,993.50
2018-01-01T15:38:25.103Z,993.49
2018-01-01T15:39:24.990Z,993.45
2018-01-01T15:40:25.013Z,993.44
2018-01-01T15:41:24.941Z,993.39
2018-01-01T15:42:25.029Z,993.41
2018-01-01T15:43:24.881Z,993.40
2018-01-01T15:44:24.939Z,993.37
2018-01-01T15:45:24.830Z,993.35
2018-01-01T15:46:24.850Z,993.34
2018-01-01T15:47:24.771Z,993.34
2018-01-01T15:48:24.861Z,993.35
2018-01-01T15:49:24.718Z,993.34
2018-01-01T15:50:24.774Z,993.29
2018-01-01T15:51:24.670Z,993.25
2018-01-01T15:52:24.686Z,993.25
2018-01-01T15:53:24.610Z,993.24
2018-01-01T15:54:24.718Z,993.22
2018-01-01T15:55:24.562Z,993.21
2018-01-01T15:56:24.620Z,993.20
2018-01-01T15:57:24.499Z,993.16
2018-01-01T15:58:24.523Z,993.16
2018-01-01T15:59:24.441Z,993.14
2018-01-01T16:00:24.533Z,993.17
2018-01-01T16:01:24.391Z,993.21
2018-01-01T16:02:24.445Z,993.17
2018-01-01T16:03:24.337Z,993.10
2018-01-01T16:04:24.354Z,993.15
2018-01-01T16:05:24.281Z,993.12
2018-01-01T16:06:24.273Z,993.16
2018-01-01T16:07:24.225Z,993.13
2018-01-01T16:08:24.286Z,993.15
2018-01-01T16:09:24.173Z,993.14
2018-01-01T16:10:24.194Z,993.06
2018-01-01T16:11:24.116Z,993.01
2018-01-01T16:12:24.088Z,993.00
2018-01-01T16:13:24.116Z,993.02
2018-01-01T16:14:24.036Z,992.97
2018-01-01T16:15:24.025Z,992.93
2018-01-01T16:16:23.978Z,992.91
2018-01-01T16:17:24.042Z,992.87
2018-01-01T16:18:23.924Z,992.89
2018-01-01T16:19:23.952Z,992.86
2018-01-01T16:20:23.868Z,992.82
2018-01-01T16:21:23.840Z,992.85
2018-01-01T16:22:23.875Z,992.86
2018-01-01T16:23:23.783Z,992.88
2018-01-01T16:24:23.782Z,992.87
2018-01-01T16:25:23.785Z,992.88
2018-01-01T16:26:23.702Z,992.91
2018-01-01T16:27:23.804Z,992.85
2018-01-01T16:28:23.750Z,992.87
2018-01-01T16:29:23.712Z,992.85
2018-01-01T16:30:23.596Z,992.83
2018-01-01T16:31:23.626Z,992.84
2018-01-01T16:32:23.538Z,992.81
2018-01-01T16:33:23.540Z,992.79
2018-01-01T16:34:23.483Z,992.74
2018-01-01T16:35:23.550Z,992.69
2018-01-01T16:36:23.428Z,992.69
2018-01-01T16:37:23.463Z,992.69
2018-01-01T16:38:23.371Z,992.71
2018-01-01T16:39:23.372Z,992.64
2018-01-01T16:40:23.316Z,992.64
2018-01-01T16:41:23.386Z,992.60
2018-01-01T16:42:23.261Z,992.64
2018-01-01T16:43:23.299Z,992.62
2018-01-01T16:44:23.205Z,992.61
2018-01-01T16:45:23.215Z,992.59
2018-01-01T16:46:23.155Z,992.63
2018-01-01T16:47:23.224Z,992.62
2018-01-01T16:48:23.101Z,992.61
2018-01-01T16:49:23.135Z,992.58
2018-01-01T16:50:23.038Z,992.62
2018-01-01T16:51:23.045Z,992.59
2018-01-01T16:52:22.985Z,992.60
2018-01-01T16:53:23.059Z,992.57
2018-01-01T16:54:22.926Z,992.59
2018-01-01T16:55:22.970Z,992.57
2018-01-01T16:56:22.875Z,992.56
2018-01-01T16:57:22.886Z,992.58
2018-01-01T16:58:22.819Z,992.54
2018-01-01T16:59:22.897Z,992.52
2018-01-01T17:00:22.760Z,992.50
2018-01-01T17:01:22.810Z,992.51
2018-01-01T17:02:22.711Z,992.47
2018-01-01T17:03:22.719Z,992.48
2018-01-01T17:04:22.652Z,992.46
2018-01-01T17:05:22.731Z,992.42
2018-01-01T17:06:22.594Z,992.46
2018-01-01T17:07:22.645Z,992.48
2018-01-01T17:08:22.546Z,992.45
2018-01-01T17:09:22.556Z,992.44
2018-01-01T17:10:22.484Z,992.42
2018-01-01T17:11:22.464Z,992.43
2018-01-01T17:12:22.429Z,992.41
2018-01-01T17:13:22.484Z,992.36
2018-01-01T17:14:22.373Z,992.37
2018-01-01T17:15:22.393Z,992.34
2018-01-01T17:16:22.319Z,992.36
2018-01-01T17:17:22.307Z,992.29
2018-01-01T17:18:22.263Z,992.27
2018-01-01T17:19:22.317Z,992.26
2018-01-01T17:20:22.206Z,992.26
2018-01-01T17:21:22.231Z,992.32
2018-01-01T17:22:22.149Z,992.30
2018-01-01T17:23:22.137Z,992.29
2018-01-01T17:24:22.099Z,992.27
2018-01-01T17:25:22.157Z,992.27
2018-01-01T17:26:22.036Z,992.25
2018-01-01T17:27:22.062Z,992.25
2018-01-01T17:28:21.988Z,992.27
2018-01-01T17:29:21.979Z,992.25
2018-01-01T17:30:21.923Z,992.23
2018-01-01T17:31:21.992Z,992.25
2018-01-01T17:32:21.866Z,992.26
2018-01-01T17:33:21.904Z,992.27
2018-01-01T17:34:21.826Z,992.30
2018-01-01T17:35:21.814Z,992.28
2018-01-01T17:36:21.758Z,992.31
2018-01-01T17:37:21.830Z,992.27
2018-01-01T17:38:21.708Z,992.25
2018-01-01T17:39:21.738Z,992.30
2018-01-01T17:40:21.663Z,992.24
2018-01-01T17:41:21.652Z,992.27
2018-01-01T17:42:21.590Z,992.23
2018-01-01T17:43:21.666Z,992.27
2018-01-01T17:44:21.533Z,992.29
2018-01-01T17:45:21.580Z,992.27
2018-01-01T17:46:21.477Z,992.29
2018-01-01T17:47:21.489Z,992.25
2018-01-01T17:48:21.419Z,992.29
2018-01-01T17:49:21.503Z,992.28
2018-01-01T17:50:21.362Z,992.26
2018-01-01T17:51:21.413Z,992.30
2018-01-01T17:52:21.303Z,992.29
2018-01-01T17:53:21.324Z,992.30
2018-01-01T17:54:21.255Z,992.30
2018-01-01T17:55:21.235Z,992.31
2018-01-01T17:56:21.196Z,992.31
2018-01-01T17:57:21.250Z,992.34
2018-01-01T17:58:21.137Z,992.35
2018-01-01T17:59:21.164Z,992.34
2018-01-01T18:00:21.079Z,992.37
2018-01-01T18:01:21.071Z,992.32
2018-01-01T18:02:21.021Z,992.34
2018-01-01T18:03:21.088Z,992.40
2018-01-01T18:04:20.965Z,992.37
2018-01-01T18:05:20.999Z,992.39
2018-01-01T18:06:20.909Z,992.40
2018-01-01T18:07:20.915Z,992.39
2018-01-01T18:08:20.850Z,992.41
2018-01-01T18:09:20.924Z,992.40
2018-01-01T18:10:20.796Z,992.42
2018-01-01T18:11:20.833Z,992.41
2018-01-01T18:12:20.741Z,992.44
2018-01-01T18:13:20.747Z,992.42
2018-01-01T18:14:20.682Z,992.43
2018-01-01T18:15:20.761Z,992.45
2018-01-01T18:16:20.624Z,992.45
2018-01-01T18:17:20.685Z,992.41
2018-01-01T18:18:20.581Z,992.48
2018-01-01T18:19:20.586Z,992.43
2018-01-01T18:20:20.519Z,992.43
2018-01-01T18:21:20.597Z,992.50
2018-01-01T18:22:20.453Z,992.48
2018-01-01T18:23:20.529Z,992.46
2018-01-01T18:24:20.398Z,992.49
2018-01-01T18:25:20.375Z,992.48
2018-01-01T18:26:20.423Z,992.50
2018-01-01T18:27:20.311Z,992.52
2018-01-01T18:28:20.353Z,992.50
2018-01-01T18:29:20.305Z,992.52
2018-01-01T18:30:20.358Z,992.55
2018-01-01T18:31:20.207Z,992.54
2018-01-01T18:32:20.266Z,992.52
2018-01-01T18:33:20.143Z,992.55
2018-01-01T18:34:20.191Z,992.55
2018-01-01T18:35:20.095Z,992.53
2018-01-01T18:36:20.202Z,992.54
2018-01-01T18:37:20.028Z,992.53
2018-01-01T18:38:20.152Z,992.51
2018-01-01T18:39:19.975Z,992.53
2018-01-01T18:40:20.134Z,992.52
2018-01-01T18:41:19.923Z,992.53
2018-01-01T18:42:20.051Z,992.58
2018-01-01T18:43:19.889Z,992.59
2018-01-01T18:44:19.938Z,992.58
2018-01-01T18:45:19.797Z,992.57
2018-01-01T18:46:19.861Z,992.59
2018-01-01T18:47:19.739Z,992.63
2018-01-01T18:48:19.888Z,992.59
2018-01-01T18:49:19.695Z,992.61
2018-01-01T18:50:19.791Z,992.63
2018-01-01T18:51:19.647Z,992.65
2018-01-01T18:52:19.808Z,992.63
2018-01-01T18:53:19.576Z,992.64
2018-01-01T18:54:19.772Z,992.65
2018-01-01T18:55:19.549Z,992.67
2018-01-01T18:56:19.654Z,992.66
2018-01-01T18:57:19.458Z,992.70
2018-01-01T18:58:19.522Z,992.71
2018-01-01T18:59:19.402Z,992.71
2018-01-01T19:00:19.433Z,992.69
2018-01-01T19:01:19.353Z,992.70
2018-01-01T19:02:19.453Z,992.74
2018-01-01T19:03:19.285Z,992.74
2018-01-01T19:04:19.376Z,992.77
2018-01-01T19:05:19.249Z,992.74
2018-01-01T19:06:19.371Z,992.74
2018-01-01T19:07:19.182Z,992.77
2018-01-01T19:08:19.279Z,992.76
2018-01-01T19:09:19.159Z,992.78
2018-01-01T19:10:19.200Z,992.80
2018-01-01T19:11:19.059Z,992.80
2018-01-01T19:12:19.208Z,992.82
2018-01-01T19:13:19.002Z,992.80
2018-01-01T19:14:19.147Z,992.79
2018-01-01T19:15:18.971Z,992.87
2018-01-01T19:16:19.049Z,992.82
2018-01-01T19:17:18.903Z,992.84
2018-01-01T19:18:18.947Z,992.86
2018-01-01T19:19:18.837Z,992.86
2018-01-01T19:20:18.967Z,992.88
2018-01-01T19:21:18.775Z,992.90
2018-01-01T19:22:18.871Z,992.90
2018-01-01T19:23:18.724Z,992.92
2018-01-01T19:24:18.777Z,992.91
2018-01-01T19:25:18.664Z,992.93
2018-01-01T19:26:18.801Z,992.96
2018-01-01T19:27:18.605Z,992.99
2018-01-01T19:28:18.726Z,993.01
2018-01-01T19:29:18.559Z,993.02
2018-01-01T19:30:18.617Z,993.03
2018-01-01T19:31:18.496Z,993.04
2018-01-01T19:32:18.646Z,993.06
2018-01-01T19:33:18.449Z,993.09
2018-01-01T19:34:18.547Z,993.12
2018-01-01T19:35:18.382Z,993.17
2018-01-01T19:36:18.468Z,993.12
2018-01-01T19:37:18.321Z,993.15
2018-01-01T19:38:18.465Z,993.21
2018-01-01T19:39:18.263Z,993.21
2018-01-01T19:40:18.395Z,993.24
2018-01-01T19:41:18.208Z,993.27
2018-01-01T19:42:18.300Z,993.26
2018-01-01T19:43:18.159Z,993.30
2018-01-01T19:44:18.307Z,993.30
2018-01-01T19:45:18.126Z,993.33
2018-01-01T19:46:18.220Z,993.33
2018-01-01T19:47:18.040Z,993.35
2018-01-01T19:48:18.232Z,993.37
2018-01-01T19:49:17.981Z,993.32
2018-01-01T19:50:18.153Z,993.35
2018-01-01T19:51:17.928Z,993.36
2018-01-01T19:52:18.061Z,993.35
2018-01-01T19:53:17.897Z,993.41
2018-01-01T19:54:17.962Z,993.45
2018-01-01T19:55:17.828Z,993.44
2018-01-01T19:56:17.974Z,993.50
2018-01-01T19:57:17.754Z,993.54
2018-01-01T19:58:17.889Z,993.59
2018-01-01T19:59:17.698Z,993.57
2018-01-01T20:00:17.814Z,993.57
2018-01-01T20:01:17.666Z,993.60
2018-01-01T20:02:17.818Z,993.61
2018-01-01T20:03:17.592Z,993.60
2018-01-01T20:04:17.727Z,993.63
2018-01-01T20:05:17.536Z,993.66
2018-01-01T20:06:17.641Z,993.66
2018-01-01T20:07:17.499Z,993.69
2018-01-01T20:08:17.657Z,993.72
2018-01-01T20:09:17.418Z,993.76
2018-01-01T20:10:17.562Z,993.80
2018-01-01T20:11:17.363Z,993.85
2018-01-01T20:12:17.480Z,993.85
2018-01-01T20:13:17.300Z,993.88
2018-01-01T20:14:18.417Z,993.89
2018-01-01T20:15:17.247Z,993.93
2018-01-01T20:16:17.404Z,993.95
2018-01-01T20:17:17.203Z,993.99
2018-01-01T20:18:17.238Z,994.01
2018-01-01T20:19:17.150Z,994.09
2018-01-01T20:20:17.233Z,994.15
2018-01-01T20:21:17.074Z,994.10
2018-01-01T20:22:17.135Z,994.12
2018-01-01T20:23:17.013Z,994.16
2018-01-01T20:24:17.044Z,994.21
2018-01-01T20:25:16.960Z,994.22
2018-01-01T20:26:16.957Z,994.26
2018-01-01T20:27:16.914Z,994.30
2018-01-01T20:28:16.998Z,994.34
2018-01-01T20:29:16.843Z,994.34
2018-01-01T20:30:16.878Z,994.43
2018-01-01T20:31:16.786Z,994.39
2018-01-01T20:32:16.796Z,994.42
2018-01-01T20:33:16.733Z,994.44
2018-01-01T20:34:16.806Z,994.44
2018-01-01T20:35:16.683Z,994.50
2018-01-01T20:36:16.720Z,994.50
2018-01-01T20:37:16.619Z,994.55
2018-01-01T20:38:16.641Z,994.53
2018-01-01T20:39:16.556Z,994.53
2018-01-01T20:40:16.641Z,994.59
2018-01-01T20:41:16.517Z,994.61
2018-01-01T20:42:16.561Z,994.65
2018-01-01T20:43:16.451Z,994.65
2018-01-01T20:44:16.476Z,994.73
2018-01-01T20:45:16.386Z,994.72
2018-01-01T20:46:16.506Z,994.78
2018-01-01T20:47:16.330Z,994.81
2018-01-01T20:48:16.388Z,994.83
2018-01-01T20:49:16.274Z,994.82
2018-01-01T20:50:16.318Z,994.91
2018-01-01T20:51:16.213Z,994.90
2018-01-01T20:52:16.332Z,994.92
2018-01-01T20:53:16.160Z,994.97
2018-01-01T20:54:16.228Z,995.01
2018-01-01T20:55:16.098Z,995.03
2018-01-01T20:56:16.135Z,995.05
2018-01-01T20:57:16.039Z,995.08
2018-01-01T20:58:16.156Z,995.14
2018-01-01T20:59:15.978Z,995.12
2018-01-01T21:00:16.072Z,995.15
2018-01-01T21:01:15.940Z,995.22
2018-01-01T21:02:15.995Z,995.25
2018-01-01T21:03:15.863Z,995.25
2018-01-01T21:04:15.886Z,995.28
2018-01-01T21:05:15.807Z,995.33
2018-01-01T21:06:15.930Z,995.37
2018-01-01T21:07:15.767Z,995.44
2018-01-01T21:08:15.823Z,995.46
2018-01-01T21:09:15.686Z,995.47
2018-01-01T21:10:15.726Z,995.50
2018-01-01T21:11:15.630Z,995.52
2018-01-01T21:12:15.739Z,995.58
2018-01-01T21:13:15.568Z,995.61
2018-01-01T21:14:15.672Z,995.72
2018-01-01T21:15:15.505Z,995.67
2018-01-01T21:16:15.560Z,995.65
2018-01-01T21:17:15.449Z,995.72
2018-01-01T21:18:15.574Z,995.78
2018-01-01T21:19:15.393Z,995.73
2018-01-01T21:20:15.486Z,995.83
2018-01-01T21:21:15.330Z,995.83
2018-01-01T21:22:15.436Z,995.83
2018-01-01T21:23:15.273Z,995.90
2018-01-01T21:24:15.411Z,995.93
2018-01-01T21:25:15.221Z,995.94
2018-01-01T21:26:15.322Z,995.95
2018-01-01T21:27:15.209Z,996.04
2018-01-01T21:28:15.234Z,996.06
2018-01-01T21:29:15.111Z,996.16
2018-01-01T21:30:15.143Z,996.11
2018-01-01T21:31:15.045Z,996.17
2018-01-01T21:32:15.166Z,996.21
2018-01-01T21:33:14.981Z,996.30
2018-01-01T21:34:15.071Z,996.25
2018-01-01T21:35:14.924Z,996.34
2018-01-01T21:36:14.990Z,996.36
2018-01-01T21:37:14.862Z,996.35
2018-01-01T21:38:14.994Z,996.41
2018-01-01T21:39:14.805Z,996.46
2018-01-01T21:40:14.912Z,996.52
2018-01-01T21:41:14.746Z,996.50
2018-01-01T21:42:14.818Z,996.55
2018-01-01T21:43:14.683Z,996.66
2018-01-01T21:44:14.834Z,996.69
2018-01-01T21:45:14.626Z,996.61
2018-01-01T21:46:14.761Z,996.65
2018-01-01T21:47:14.564Z,996.71
2018-01-01T21:48:14.655Z,996.75
2018-01-01T21:49:14.504Z,996.74
2018-01-01T21:50:14.569Z,996.82
2018-01-01T21:51:14.450Z,996.79
2018-01-01T21:52:14.582Z,996.85
2018-01-01T21:53:14.392Z,996.91
2018-01-01T21:54:14.491Z,996.94
2018-01-01T21:55:14.345Z,997.03
2018-01-01T21:56:14.425Z,997.03
2018-01-01T21:57:14.271Z,997.09
2018-01-01T21:58:14.430Z,997.13
2018-01-01T21:59:14.212Z,997.23
2018-01-01T22:00:14.352Z,997.25
2018-01-01T22:01:14.153Z,997.29
2018-01-01T22:02:14.244Z,997.32
2018-01-01T22:03:14.090Z,997.37
2018-01-01T22:04:14.263Z,997.41
2018-01-01T22:05:14.033Z,997.37
2018-01-01T22:06:14.170Z,997.41
2018-01-01T22:07:13.975Z,997.52
2018-01-01T22:08:14.080Z,997.50
2018-01-01T22:09:13.913Z,997.57
2018-01-01T22:10:13.985Z,997.59
2018-01-01T22:11:13.858Z,997.59
2018-01-01T22:12:14.004Z,997.67
2018-01-01T22:13:13.791Z,997.66
2018-01-01T22:14:13.915Z,997.75
2018-01-01T22:15:13.735Z,997.75
2018-01-01T22:16:13.822Z,997.74
2018-01-01T22:17:13.674Z,997.74
2018-01-01T22:18:13.838Z,997.77
2018-01-01T22:19:13.614Z,997.79
2018-01-01T22:20:13.752Z,997.77
2018-01-01T22:21:13.554Z,997.87
2018-01-01T22:22:13.670Z,997.82
2018-01-01T22:23:13.494Z,997.81
2018-01-01T22:24:13.573Z,997.83
2018-01-01T22:25:13.442Z,997.85
2018-01-01T22:26:13.586Z,997.89
2018-01-01T22:27:13.378Z,997.88
2018-01-01T22:28:13.499Z,997.94
2018-01-01T22:29:13.317Z,997.98
2018-01-01T22:30:13.410Z,998.01
2018-01-01T22:31:13.258Z,998.06
2018-01-01T22:32:13.423Z,998.14
2018-01-01T22:33:13.196Z,998.13
2018-01-01T22:34:13.334Z,998.12
2018-01-01T22:35:13.136Z,998.17
2018-01-01T22:36:13.246Z,998.14
2018-01-01T22:37:13.082Z,998.23
2018-01-01T22:38:13.259Z,998.20
2018-01-01T22:39:13.019Z,998.29
2018-01-01T22:40:14.194Z,998.27
2018-01-01T22:41:12.963Z,998.27
2018-01-01T22:42:13.081Z,998.30
2018-01-01T22:43:12.900Z,998.35
2018-01-01T22:44:12.999Z,998.38
2018-01-01T22:45:12.841Z,998.36
2018-01-01T22:46:13.008Z,998.41
2018-01-01T22:47:12.778Z,998.39
2018-01-01T22:48:12.816Z,998.43
2018-01-01T22:49:12.717Z,998.47
2018-01-01T22:50:12.731Z,998.49
2018-01-01T22:51:12.660Z,998.49
2018-01-01T22:52:12.737Z,998.54
2018-01-01T22:53:12.601Z,998.59
2018-01-01T22:54:12.655Z,998.59
2018-01-01T22:55:12.548Z,998.58
2018-01-01T22:56:12.564Z,998.67
2018-01-01T22:57:12.481Z,998.63
2018-01-01T22:58:12.472Z,998.70
2018-01-01T22:59:12.421Z,998.74
2018-01-01T23:00:12.493Z,998.71
2018-01-01T23:01:12.362Z,998.73
2018-01-01T23:02:12.404Z,998.77
2018-01-01T23:03:12.303Z,998.77
2018-01-01T23:04:12.315Z,998.81
2018-01-01T23:05:12.241Z,998.80
2018-01-01T23:06:12.327Z,998.89
2018-01-01T23:07:12.182Z,998.84
2018-01-01T23:08:12.238Z,998.89
2018-01-01T23:09:12.119Z,998.89
2018-01-01T23:10:12.152Z,998.97
2018-01-01T23:11:12.061Z,999.01
2018-01-01T23:12:12.166Z,999.01
2018-01-01T23:13:12.001Z,999.05
2018-01-01T23:14:12.077Z,999.01
2018-01-01T23:15:11.942Z,999.05
2018-01-01T23:16:11.989Z,999.02
2018-01-01T23:17:11.883Z,999.10
2018-01-01T23:18:11.949Z,999.16
2018-01-01T23:19:11.820Z,999.10
2018-01-01T23:20:11.913Z,999.17
2018-01-01T23:21:11.767Z,999.08
2018-01-01T23:22:11.826Z,999.13
2018-01-01T23:23:11.700Z,999.08
2018-01-01T23:24:11.736Z,999.13
2018-01-01T23:25:11.643Z,999.19
2018-01-01T23:26:11.752Z,999.21
2018-01-01T23:27:11.585Z,999.26
2018-01-01T23:28:11.663Z,999.29
2018-01-01T23:29:11.525Z,999.34
2018-01-01T23:30:11.575Z,999.34
2018-01-01T23:31:11.466Z,999.34
2018-01-01T23:32:11.483Z,999.34
2018-01-01T23:33:11.406Z,999.37
2018-01-01T23:34:11.501Z,999.35
2018-01-01T23:35:11.344Z,999.44
2018-01-01T23:36:11.411Z,999.42
2018-01-01T23:37:11.285Z,999.40
2018-01-01T23:38:11.323Z,999.48
2018-01-01T23:39:11.226Z,999.50
2018-01-01T23:40:11.334Z,999.44
2018-01-01T23:41:11.162Z,999.45
2018-01-01T23:42:11.247Z,999.55
2018-01-01T23:43:11.103Z,999.53
2018-01-01T23:44:11.162Z,999.50
2018-01-01T23:45:11.049Z,999.55
2018-01-01T23:46:11.171Z,999.61
2018-01-01T23:47:10.983Z,999.55
2018-01-01T23:48:11.083Z,999.56
2018-01-01T23:49:10.926Z,999.64
2018-01-01T23:50:10.993Z,999.63
2018-01-01T23:51:10.866Z,999.73
2018-01-01T23:52:10.855Z,999.64
2018-01-01T23:53:10.804Z,999.58
2018-01-01T23:54:10.919Z,999.58
2018-01-01T23:55:10.751Z,999.58
2018-01-01T23:56:10.838Z,999.61
2018-01-01T23:57:10.687Z,999.67
2018-01-01T23:58:10.740Z,999.68
2018-01-01T23:59:10.628Z,999.65
